.
WxDataArchive / Data Records for 2011-07-09
2011-07-08 July 2011 2011-07-10

Data Records for Saturday, 09 July 2011

Time	Temp	Chill	HIndex	Humid	Dewpt	 Wind 	HiWind	WindDir	Rain 	Barom 
-----	----	-----	------	-----	-----	------	------	-------	-----	----- 
00:00	70.8	70.8	70.8	63	57.6	0	0	---	0.00	29.854 
00:05	70.6	70.6	70.6	63	57.4	0	0	---	0.00	29.854 
00:10	70.3	70.3	70.3	63	57.1	0	0	---	0.00	29.854 
00:15	70.1	70.1	70.1	64	57.3	0	0	---	0.00	29.861 
00:20	69.9	69.9	69.9	65	57.6	0	0	---	0.00	29.861 
00:25	69.8	69.8	69.8	65	57.5	0	0	---	0.00	29.861 
00:30	69.6	69.6	69.6	66	57.7	0	0	---	0.00	29.865 
00:35	69.4	69.4	69.4	67	58.0	0	0	---	0.00	29.865 
00:40	69.3	69.3	69.3	68	58.3	0	0	---	0.00	29.865 
00:45	68.9	68.9	68.9	69	58.3	0	0	---	0.00	29.866 
00:50	68.8	68.8	68.8	70	58.6	0	0	---	0.00	29.866 
00:55	68.6	68.6	68.6	71	58.8	0	0	---	0.00	29.866 
01:00	68.4	68.4	68.4	72	59.0	0	0	---	0.00	29.866 
01:05	68.3	68.3	68.3	73	59.3	0	0	---	0.00	29.866 
01:10	67.9	67.9	67.9	73	58.9	0	0	---	0.00	29.866 
01:15	67.8	67.8	67.8	74	59.2	0	0	---	0.00	29.866 
01:20	67.6	67.6	67.6	75	59.4	0	0	---	0.00	29.866 
01:25	67.3	67.3	67.3	75	59.1	0	0	---	0.00	29.866 
01:30	67.1	67.1	67.1	75	58.9	0	0	---	0.00	29.873 
01:35	66.9	66.9	66.9	75	58.7	0	0	---	0.00	29.873 
01:40	66.8	66.8	66.8	76	59.0	0	0	---	0.00	29.873 
01:45	66.6	66.6	66.6	77	59.2	0	0	---	0.00	29.873 
01:50	66.4	66.4	66.4	77	59.0	0	0	---	0.00	29.873 
01:55	66.3	66.3	66.3	77	58.9	0	0	---	0.00	29.873 
02:00	66.0	66.0	66.0	78	58.9	0	0	---	0.00	29.879 
02:05	65.8	65.8	65.8	78	58.7	0	0	---	0.00	29.879 
02:10	65.6	65.6	65.6	79	58.9	0	0	---	0.00	29.879 
02:15	65.5	65.5	65.5	80	59.2	0	0	---	0.00	29.882 
02:20	65.3	65.3	65.3	80	59.0	0	0	---	0.00	29.882 
02:25	65.3	65.3	65.3	80	59.0	0	0	---	0.00	29.882 
02:30	65.2	65.2	65.2	81	59.2	0	0	---	0.00	29.890 
02:35	65.0	65.0	65.0	81	59.0	0	0	---	0.00	29.890 
02:40	64.8	64.8	64.8	80	58.5	0	0	---	0.00	29.890 
02:45	64.8	64.8	64.8	80	58.5	0	0	---	0.00	29.890 
02:50	64.7	64.7	64.7	81	58.7	0	0	---	0.00	29.890 
02:55	64.5	64.5	64.5	81	58.5	0	0	---	0.00	29.890 
03:00	64.3	64.3	64.3	81	58.3	0	0	---	0.00	29.893 
03:05	64.3	64.3	64.3	82	58.7	0	0	---	0.00	29.893 
03:10	64.3	64.3	64.3	82	58.7	0	0	---	0.00	29.893 
03:15	64.2	64.2	64.2	82	58.6	0	0	---	0.00	29.894 
03:20	64.0	64.0	64.0	82	58.4	0	0	---	0.00	29.894 
03:25	63.9	63.9	63.9	82	58.3	0	0	---	0.00	29.894 
03:30	63.7	63.7	63.7	83	58.4	0	0	---	0.00	29.898 
03:35	63.5	63.5	63.5	83	58.2	0	0	---	0.00	29.898 
03:40	63.5	63.5	63.5	84	58.6	0	0	---	0.00	29.898 
03:45	63.4	63.4	63.4	84	58.5	0	0	---	0.00	29.901 
03:50	63.2	63.2	63.2	85	58.6	0	0	---	0.00	29.901 
03:55	63.1	63.1	63.1	85	58.5	0	0	---	0.00	29.901 
04:00	62.9	62.9	62.9	85	58.3	0	0	---	0.00	29.904 
04:05	62.7	62.7	62.7	85	58.1	0	0	---	0.00	29.904 
04:10	62.6	62.6	62.6	85	58.0	0	0	---	0.00	29.904 
04:15	62.6	62.6	62.6	86	58.3	0	0	---	0.00	29.906 
04:20	62.4	62.4	62.4	86	58.2	0	0	---	0.00	29.906 
04:25	62.3	62.3	62.3	86	58.1	0	0	---	0.00	29.906 
04:30	62.3	62.3	62.3	87	58.4	0	0	---	0.00	29.912 
04:35	62.1	62.1	62.1	87	58.2	0	0	---	0.00	29.912 
04:40	62.1	62.1	62.1	88	58.5	0	0	---	0.00	29.912 
04:45	62.0	62.0	62.0	88	58.4	0	0	---	0.00	29.917 
04:50	62.0	62.0	62.0	88	58.4	0	0	---	0.00	29.917 
04:55	61.8	61.8	61.8	88	58.2	0	0	---	0.00	29.917 
05:00	61.8	61.8	61.8	88	58.2	0	0	---	0.00	29.916 
05:05	61.6	61.6	61.6	88	58.0	0	0	---	0.00	29.916 
05:10	61.6	61.6	61.6	89	58.3	0	0	---	0.00	29.916 
05:15	61.5	61.5	61.5	89	58.2	0	0	---	0.00	29.922 
05:20	61.5	61.5	61.5	89	58.2	0	0	---	0.00	29.922 
05:25	61.3	61.3	61.3	89	58.0	0	0	---	0.00	29.922 
05:30	61.3	61.3	61.3	89	58.0	0	0	---	0.00	29.932 
05:35	61.2	61.2	61.2	89	57.9	0	0	---	0.00	29.932 
05:40	61.2	61.2	61.2	90	58.2	0	0	---	0.00	29.932 
05:45	61.2	61.2	61.2	90	58.2	0	0	---	0.00	29.934 
05:50	61.0	61.0	61.0	90	58.0	0	0	---	0.00	29.934 
05:55	61.0	61.0	61.0	90	58.0	0	0	---	0.00	29.934 
06:00	61.0	61.0	61.0	90	58.0	0	0	---	0.00	29.937 
06:05	60.9	60.9	60.9	90	57.9	0	0	---	0.00	29.937 
06:10	60.9	60.9	60.9	91	58.3	0	0	---	0.00	29.937 
06:15	60.9	60.9	60.9	91	58.3	0	0	---	0.00	29.948 
06:20	60.7	60.7	60.7	91	58.1	0	0	---	0.00	29.948 
06:25	60.7	60.7	60.7	91	58.1	0	0	---	0.00	29.948 
06:30	60.7	60.7	60.7	91	58.1	0	0	---	0.00	29.949 
06:35	60.7	60.7	60.7	91	58.1	0	0	---	0.00	29.949 
06:40	60.7	60.7	60.7	91	58.1	0	0	---	0.00	29.949 
06:45	60.7	60.7	60.7	91	58.1	0	0	---	0.00	29.950 
06:50	60.7	60.7	60.7	92	58.4	0	0	---	0.00	29.950 
06:55	60.9	60.9	60.9	92	58.6	0	0	---	0.00	29.950 
07:00	61.0	61.0	61.0	92	58.7	0	0	---	0.00	29.944 
07:05	61.0	61.0	61.0	92	58.7	0	0	---	0.00	29.944 
07:10	61.3	61.3	61.3	92	59.0	0	0	---	0.00	29.944 
07:15	61.5	61.5	61.5	92	59.2	0	0	---	0.00	29.951 
07:20	61.8	61.8	61.8	92	59.4	0	0	---	0.00	29.951 
07:25	62.3	62.3	62.3	92	59.9	0	0	---	0.00	29.951 
07:30	62.7	62.7	62.7	92	60.3	0	0	---	0.00	29.954 
07:35	63.4	63.4	63.4	92	61.0	0	0	---	0.00	29.954 
07:40	64.0	64.0	64.0	92	61.6	0	0	---	0.00	29.954 
07:45	64.8	64.8	64.8	91	62.1	0	0	---	0.00	29.957 
07:50	65.6	65.6	65.6	90	62.6	0	0	---	0.00	29.957 
07:55	66.9	66.9	66.9	81	60.9	0	0	---	0.00	29.957 
08:00	68.1	68.1	68.1	73	59.1	0	1	90	0.00	29.954 
08:05	69.6	69.6	69.6	68	58.6	0	1	90	0.00	29.954 
08:10	71.1	71.1	71.1	65	58.7	0	0	---	0.00	29.954 
08:15	72.3	72.3	72.3	62	58.5	0	2	90	0.00	29.959 
08:20	73.3	73.3	73.3	61	59.0	0	1	90	0.00	29.959 
08:25	74.4	74.4	74.4	59	59.1	0	1	90	0.00	29.959 
08:30	75.1	75.1	77.6	56	58.3	0	1	90	0.00	29.954 
08:35	75.3	75.3	77.7	55	58.0	1	2	90	0.00	29.954 
08:40	75.8	75.8	78.0	55	58.5	0	1	90	0.00	29.954 
08:45	76.5	76.5	78.3	51	57.0	0	1	90	0.00	29.957 
08:50	77.4	77.4	78.8	50	57.3	0	1	90	0.00	29.957 
08:55	78.3	78.3	79.4	49	57.5	0	1	90	0.00	29.957 
09:00	79.0	79.0	79.9	49	58.2	0	1	90	0.00	29.959 
09:05	79.4	79.4	80.3	50	59.1	0	2	90	0.00	29.959 
09:10	79.4	79.4	80.3	50	59.1	0	2	90	0.00	29.959 
09:15	79.6	79.6	80.2	47	57.6	0	0	---	0.00	29.961 
09:20	79.9	79.9	80.4	46	57.2	1	2	90	0.00	29.961 
09:25	80.3	80.3	80.6	45	57.0	0	2	90	0.00	29.961 
09:30	80.9	80.9	81.0	44	56.9	0	1	90	0.00	29.963 
09:35	81.2	81.2	81.2	44	57.2	0	1	90	0.00	29.963 
09:40	81.6	81.6	81.1	40	54.9	0	2	90	0.00	29.963 
09:45	82.0	82.0	81.5	40	55.3	0	2	90	0.00	29.965 
09:50	82.4	82.4	82.0	42	57.0	0	2	90	0.00	29.965 
09:55	82.8	82.8	82.0	39	55.3	0	2	90	0.00	29.965 
10:00	83.2	83.2	82.5	40	56.3	0	2	90	0.00	29.960 
10:05	83.4	83.4	82.6	39	55.8	1	2	90	0.00	29.960 
10:10	83.2	83.2	82.3	38	54.9	1	3	90	0.00	29.960 
10:15	83.4	83.4	82.3	37	54.4	0	2	90	0.00	29.965 
10:20	83.8	83.8	82.5	36	54.0	1	4	90	0.00	29.965 
10:25	84.0	84.0	83.1	39	56.3	0	2	90	0.00	29.965 
10:30	84.5	84.5	83.3	37	55.3	1	3	90	0.00	29.969 
10:35	84.5	84.5	83.5	38	56.1	1	3	90	0.00	29.969 
10:40	84.3	84.3	83.0	36	54.4	1	3	112	0.00	29.969 
10:45	84.5	84.5	83.0	35	53.8	1	3	112	0.00	29.964 
10:50	84.3	84.3	82.9	35	53.6	1	4	90	0.00	29.964 
10:55	84.5	84.5	82.9	34	53.0	0	3	90	0.00	29.964 
11:00	84.9	84.9	83.0	32	51.7	1	4	90	0.00	29.961 
11:05	85.3	85.3	83.4	32	52.1	0	2	90	0.00	29.961 
11:10	85.7	85.7	83.6	31	51.5	1	3	90	0.00	29.961 
11:15	86.3	86.3	84.2	31	52.1	0	2	90	0.00	29.962 
11:20	86.1	86.1	84.4	34	54.4	1	4	90	0.00	29.962 
11:25	85.9	85.9	84.2	34	54.2	2	4	90	0.00	29.962 
11:30	85.7	85.7	83.9	33	53.2	2	4	112	0.00	29.963 
11:35	85.5	85.5	83.7	33	53.1	1	4	112	0.00	29.963 
11:40	86.1	86.1	84.3	33	53.6	1	3	112	0.00	29.963 
11:45	86.5	86.5	84.7	33	53.9	1	3	112	0.00	29.963 
11:50	86.7	86.7	85.1	34	54.9	1	3	112	0.00	29.963 
11:55	87.2	87.2	85.4	33	54.6	1	3	90	0.00	29.963 
12:00	87.4	87.4	85.6	33	54.7	0	2	90	0.00	29.961 
12:05	87.8	87.8	85.7	31	53.4	1	4	90	0.00	29.961 
12:10	87.6	87.6	85.7	32	54.1	2	5	90	0.00	29.961 
12:15	87.6	87.6	85.5	31	53.2	1	5	90	0.00	29.970 
12:20	87.4	87.4	85.4	32	53.9	1	4	112	0.00	29.970 
12:25	87.4	87.4	85.6	33	54.7	1	3	338	0.00	29.970 
12:30	87.8	87.8	85.7	31	53.4	1	3	315	0.00	29.970 
12:35	88.0	88.0	85.9	31	53.5	2	5	90	0.00	29.970 
12:40	87.4	87.4	85.4	32	53.9	1	4	90	0.00	29.970 
12:45	87.4	87.4	85.3	31	53.0	2	5	90	0.00	29.968 
12:50	87.2	87.2	85.8	35	56.2	2	5	90	0.00	29.968 
12:55	87.8	87.8	85.7	31	53.4	1	4	90	0.00	29.968 
13:00	88.2	88.2	86.5	33	55.4	1	3	90	0.00	29.963 
13:05	88.4	88.4	86.1	30	53.0	1	3	90	0.00	29.963 
13:10	88.4	88.4	86.3	31	53.9	1	2	90	0.00	29.963 
13:15	88.2	88.2	85.8	29	51.9	1	4	90	0.00	29.962 
13:20	88.2	88.2	86.1	31	53.7	1	3	22	0.00	29.962 
13:25	88.6	88.6	86.4	30	53.2	1	4	45	0.00	29.962 
13:30	89.3	89.3	87.1	30	53.8	0	2	90	0.00	29.970 
13:35	89.7	89.7	87.2	28	52.2	1	3	90	0.00	29.970 
13:40	89.9	89.9	87.4	28	52.4	0	2	292	0.00	29.970 
13:45	89.7	89.7	87.4	29	53.2	1	3	292	0.00	29.971 
13:50	89.5	89.5	87.2	29	53.0	1	4	270	0.00	29.971 
13:55	88.8	88.8	86.4	29	52.4	2	5	90	0.00	29.971 
14:00	88.8	88.8	86.6	30	53.3	1	3	90	0.00	29.969 
14:05	88.8	88.8	86.4	29	52.4	2	6	90	0.00	29.969 
14:10	88.2	88.2	85.9	30	52.8	1	2	45	0.00	29.969 
14:15	88.6	88.6	86.6	31	54.1	1	5	112	0.00	29.968 
14:20	89.3	89.3	87.1	30	53.8	0	3	90	0.00	29.968 
14:25	89.5	89.5	87.6	31	54.8	1	5	90	0.00	29.968 
14:30	89.7	89.7	87.4	29	53.2	1	4	112	0.00	29.961 
14:35	90.1	90.1	87.4	27	51.6	1	4	90	0.00	29.961 
14:40	89.9	89.9	87.6	29	53.3	1	3	248	0.00	29.961 
14:45	89.9	89.9	87.2	27	51.4	1	3	270	0.00	29.961 
14:50	90.5	90.5	88.1	28	52.9	0	2	270	0.00	29.961 
14:55	90.5	90.5	88.1	28	52.9	0	1	270	0.00	29.961 
15:00	90.3	90.3	87.7	27	51.7	1	4	270	0.00	29.959 
15:05	90.5	90.5	88.1	28	52.9	1	3	68	0.00	29.959 
15:10	90.5	90.5	88.1	28	52.9	2	3	68	0.00	29.959 
15:15	90.3	90.3	88.1	29	53.7	1	4	68	0.00	29.952 
15:20	90.3	90.3	88.1	29	53.7	1	3	135	0.00	29.952 
15:25	90.5	90.5	88.3	29	53.9	1	3	270	0.00	29.952 
15:30	91.0	91.0	88.6	28	53.3	1	4	112	0.00	29.946 
15:35	91.2	91.2	88.9	28	53.5	1	4	135	0.00	29.946 
15:40	91.0	91.0	88.6	28	53.3	2	4	90	0.00	29.946 
15:45	90.7	90.7	88.1	27	52.1	1	5	90	0.00	29.944 
15:50	91.0	91.0	88.4	27	52.3	1	2	90	0.00	29.944 
15:55	91.2	91.2	88.7	27	52.5	1	6	90	0.00	29.944 
16:00	91.4	91.4	89.1	28	53.7	1	3	90	0.00	29.943 
16:05	91.6	91.6	89.1	27	52.8	1	4	248	0.00	29.943 
16:10	91.4	91.4	88.9	27	52.7	1	2	248	0.00	29.943 
16:15	91.6	91.6	88.9	26	51.8	1	4	90	0.00	29.937 
16:20	91.4	91.4	88.7	26	51.6	1	4	315	0.00	29.937 
16:25	91.4	91.4	88.9	27	52.7	1	3	90	0.00	29.937 
16:30	91.4	91.4	88.9	27	52.7	1	2	225	0.00	29.937 
16:35	91.4	91.4	88.9	27	52.7	1	5	112	0.00	29.937 
16:40	90.7	90.7	88.3	28	53.1	2	4	90	0.00	29.937 
16:45	90.5	90.5	88.1	28	52.9	2	6	90	0.00	29.935 
16:50	91.0	91.0	88.4	27	52.3	1	4	248	0.00	29.935 
16:55	91.2	91.2	88.7	27	52.5	1	3	248	0.00	29.935 
17:00	91.4	91.4	88.9	27	52.7	1	2	112	0.00	29.935 
17:05	91.6	91.6	88.9	26	51.8	1	3	112	0.00	29.935 
17:10	91.4	91.4	88.9	27	52.7	1	4	112	0.00	29.935 
17:15	91.2	91.2	88.7	27	52.5	2	5	90	0.00	29.934 
17:20	91.0	91.0	88.4	27	52.3	1	2	112	0.00	29.934 
17:25	90.7	90.7	87.9	26	51.1	1	3	112	0.00	29.934 
17:30	90.1	90.1	87.6	28	52.6	2	6	90	0.00	29.934 
17:35	90.3	90.3	87.7	27	51.7	0	3	90	0.00	29.934 
17:40	90.3	90.3	87.7	27	51.7	1	3	90	0.00	29.934 
17:45	90.5	90.5	88.1	28	52.9	1	2	90	0.00	29.932 
17:50	90.7	90.7	88.1	27	52.1	1	2	90	0.00	29.932 
17:55	91.0	91.0	88.4	27	52.3	0	1	90	0.00	29.932 
18:00	91.0	91.0	88.4	27	52.3	0	2	90	0.00	29.927 
18:05	90.7	90.7	88.1	27	52.1	1	3	112	0.00	29.927 
18:10	90.3	90.3	87.8	28	52.7	0	2	112	0.00	29.927 
18:15	90.1	90.1	87.4	27	51.6	0	1	112	0.00	29.930 
18:20	89.9	89.9	87.2	27	51.4	0	2	112	0.00	29.930 
18:25	89.7	89.7	87.2	28	52.2	0	3	112	0.00	29.930 
18:30	89.5	89.5	86.8	27	51.1	0	1	112	0.00	29.920 
18:35	89.3	89.3	86.8	28	51.9	1	2	112	0.00	29.920 
18:40	89.0	89.0	86.4	28	51.6	0	1	112	0.00	29.920 
18:45	88.8	88.8	86.4	29	52.4	0	2	112	0.00	29.919 
18:50	88.6	88.6	86.2	29	52.2	0	1	112	0.00	29.919 
18:55	88.4	88.4	86.0	29	52.1	0	1	112	0.00	29.919 
19:00	88.4	88.4	86.3	31	53.9	0	1	112	0.00	29.919 
19:05	88.2	88.2	85.9	30	52.8	0	1	112	0.00	29.919 
19:10	88.2	88.2	85.8	29	51.9	1	2	112	0.00	29.919 
19:15	88.0	88.0	85.6	29	51.7	1	3	112	0.00	29.911 
19:20	88.0	88.0	85.6	29	51.7	0	1	112	0.00	29.911 
19:25	87.8	87.8	85.5	30	52.5	0	2	112	0.00	29.911 
19:30	87.6	87.6	85.2	29	51.4	0	2	112	0.00	29.911 
19:35	87.4	87.4	85.0	29	51.2	0	3	0	0.00	29.911 
19:40	87.4	87.4	85.0	29	51.2	0	2	68	0.00	29.911 
19:45	87.2	87.2	84.8	29	51.0	0	3	90	0.00	29.914 
19:50	87.0	87.0	84.7	30	51.8	0	2	90	0.00	29.914 
19:55	86.7	86.7	84.6	31	52.4	0	1	90	0.00	29.914 
20:00	86.3	86.3	84.3	32	52.9	0	1	90	0.00	29.914 
20:05	86.1	86.1	84.0	31	51.9	0	1	90	0.00	29.914 
20:10	86.1	86.1	84.0	31	51.9	0	1	90	0.00	29.914 
20:15	86.1	86.1	84.1	32	52.8	0	0	---	0.00	29.910 
20:20	85.9	85.9	83.9	32	52.6	0	0	---	0.00	29.910 
20:25	85.7	85.7	83.9	33	53.2	0	0	---	0.00	29.910 
20:30	85.7	85.7	84.0	34	54.1	0	0	---	0.00	29.913 
20:35	85.3	85.3	83.6	34	53.7	0	0	---	0.00	29.913 
20:40	84.9	84.9	83.4	35	54.2	0	0	---	0.00	29.913 
20:45	84.7	84.7	83.2	35	54.0	0	0	---	0.00	29.917 
20:50	84.3	84.3	83.1	37	55.2	0	0	---	0.00	29.917 
20:55	83.8	83.8	82.7	37	54.7	0	0	---	0.00	29.917 
21:00	83.4	83.4	82.4	38	55.1	0	0	---	0.00	29.920 
21:05	83.0	83.0	82.1	38	54.7	0	0	---	0.00	29.920 
21:10	82.4	82.4	81.8	40	55.6	0	0	---	0.00	29.920 
21:15	82.0	82.0	81.6	41	55.9	0	0	---	0.00	29.918 
21:20	81.6	81.6	81.3	42	56.3	0	0	---	0.00	29.918 
21:25	81.1	81.1	80.9	42	55.8	0	0	---	0.00	29.918 
21:30	80.5	80.5	80.6	43	55.9	0	0	---	0.00	29.920 
21:35	79.9	79.9	80.1	43	55.4	0	0	---	0.00	29.920 
21:40	79.4	79.4	79.8	44	55.6	0	0	---	0.00	29.920 
21:45	78.8	78.8	79.6	46	56.2	0	0	---	0.00	29.922 
21:50	78.5	78.5	79.4	47	56.6	0	0	---	0.00	29.922 
21:55	78.1	78.1	79.2	47	56.2	0	0	---	0.00	29.922 
22:00	77.6	77.6	78.9	48	56.3	0	0	---	0.00	29.926 
22:05	77.2	77.2	78.7	49	56.5	0	0	---	0.00	29.926 
22:10	76.7	76.7	78.4	49	56.1	0	0	---	0.00	29.926 
22:15	76.3	76.3	78.2	49	55.7	0	0	---	0.00	29.934 
22:20	76.0	76.0	78.1	52	57.1	0	0	---	0.00	29.934 
22:25	75.4	75.4	77.8	52	56.5	0	0	---	0.00	29.934 
22:30	75.1	75.1	77.6	53	56.8	0	0	---	0.00	29.941 
22:35	74.7	74.7	74.7	54	56.9	0	0	---	0.00	29.941 
22:40	74.6	74.6	74.6	54	56.8	0	0	---	0.00	29.941 
22:45	74.0	74.0	74.0	57	57.8	0	0	---	0.00	29.942 
22:50	73.7	73.7	73.7	58	58.0	0	0	---	0.00	29.942 
22:55	73.3	73.3	73.3	58	57.6	0	0	---	0.00	29.942 
23:00	73.0	73.0	73.0	59	57.8	0	0	---	0.00	29.943 
23:05	72.7	72.7	72.7	60	58.0	0	0	---	0.00	29.943 
23:10	72.5	72.5	72.5	60	57.8	0	0	---	0.00	29.943 
23:15	72.1	72.1	72.1	60	57.4	0	0	---	0.00	29.942 
23:20	72.0	72.0	72.0	62	58.3	0	0	---	0.00	29.942 
23:25	71.8	71.8	71.8	62	58.1	0	0	---	0.00	29.942 
23:30	71.5	71.5	71.5	63	58.2	0	0	---	0.00	29.943 
23:35	71.3	71.3	71.3	63	58.0	0	0	---	0.00	29.943 
23:40	70.9	70.9	70.9	64	58.1	0	0	---	0.00	29.943 
23:45	70.8	70.8	70.8	64	58.0	0	0	---	0.00	29.949 
23:50	70.4	70.4	70.4	64	57.6	0	0	---	0.00	29.949 
23:55	70.3	70.3	70.3	65	58.0	0	0	---	0.00	29.949 

CoCoRaHS
IN-AL-39
A2 Web Hosting
Creative Commons License
GoDaddy
search engine by freefind advanced

loaded 2018-11-14 03:40:08 • last modified 2010-11-18 10:43:29
Privacy PolicyDisclaimer
• wx.awcolley.com is powered by PmWiki v.2002016 •
• all content (unless otherwise noted) © 2018 A W Colley